Terminal Aerodrome Forecast
Issued by NWS Greer, SC

Home | Current Version | Previous Version | Text Only | Print | Product List | Glossary On
Versions: 1 2 3 4 5 6 7 8 9 10 11 12 13 14 15 16 17 18 19 20 21 22 23 24 25 26 27 28
000
FTUS42 KGSP 051730
TAFGSP
TAF
KGSP 051730Z 0518/0618 21012G18KT P6SM VCSH BKN045
     FM060100 23008KT P6SM SCT050 BKN100
     FM060800 23004KT P6SM SCT010 BKN150
     FM061400 24007KT P6SM SCT040=

USA.gov is the U.S. government's official web portal to all federal, state and local government web resources and services.